sensor_id;sensor_type;location;lat;lon;timestamp;temperature;humidity
16966;DHT22;8599;47.852;12.070;2024-03-08T00:02:07;1.80;99.90
16966;DHT22;8599;47.852;12.070;2024-03-08T00:04:34;1.80;99.90
16966;DHT22;8599;47.852;12.070;2024-03-08T00:07:01;1.80;99.90
16966;DHT22;8599;47.852;12.070;2024-03-08T00:09:28;1.90;99.90
16966;DHT22;8599;47.852;12.070;2024-03-08T00:11:56;1.80;99.90
16966;DHT22;8599;47.852;12.070;2024-03-08T00:14:24;1.80;99.90
16966;DHT22;8599;47.852;12.070;2024-03-08T00:16:51;1.70;99.90
16966;DHT22;8599;47.852;12.070;2024-03-08T00:19:19;1.60;99.90
16966;DHT22;8599;47.852;12.070;2024-03-08T00:21:46;1.50;99.90
16966;DHT22;8599;47.852;12.070;2024-03-08T00:24:13;1.50;99.90
16966;DHT22;8599;47.852;12.070;2024-03-08T00:26:40;1.50;99.90
16966;DHT22;8599;47.852;12.070;2024-03-08T00:29:07;1.60;99.90
16966;DHT22;8599;47.852;12.070;2024-03-08T00:31:35;1.60;99.90
16966;DHT22;8599;47.852;12.070;2024-03-08T00:34:02;1.60;99.90
16966;DHT22;8599;47.852;12.070;2024-03-08T00:36:29;1.70;99.90
16966;DHT22;8599;47.852;12.070;2024-03-08T00:38:56;1.70;99.90
16966;DHT22;8599;47.852;12.070;2024-03-08T00:41:26;1.70;99.90
16966;DHT22;8599;47.852;12.070;2024-03-08T00:43:52;1.60;99.90
16966;DHT22;8599;47.852;12.070;2024-03-08T00:46:19;1.50;99.90
16966;DHT22;8599;47.852;12.070;2024-03-08T00:48:47;1.50;99.90
16966;DHT22;8599;47.852;12.070;2024-03-08T00:51:14;1.50;99.90
16966;DHT22;8599;47.852;12.070;2024-03-08T00:53:41;1.50;99.90
16966;DHT22;8599;47.852;12.070;2024-03-08T00:56:08;1.60;99.90
16966;DHT22;8599;47.852;12.070;2024-03-08T00:58:36;1.60;99.90
16966;DHT22;8599;47.852;12.070;2024-03-08T01:01:03;1.50;99.90
16966;DHT22;8599;47.852;12.070;2024-03-08T01:03:30;1.40;99.90
16966;DHT22;8599;47.852;12.070;2024-03-08T01:05:59;1.30;99.90
16966;DHT22;8599;47.852;12.070;2024-03-08T01:08:27;1.40;99.90
16966;DHT22;8599;47.852;12.070;2024-03-08T01:10:54;1.40;99.90
16966;DHT22;8599;47.852;12.070;2024-03-08T01:13:21;1.30;99.90
16966;DHT22;8599;47.852;12.070;2024-03-08T01:15:48;1.30;99.90
16966;DHT22;8599;47.852;12.070;2024-03-08T01:18:14;1.30;99.90
16966;DHT22;8599;47.852;12.070;2024-03-08T01:20:41;1.40;99.90
16966;DHT22;8599;47.852;12.070;2024-03-08T01:23:09;1.40;99.90
16966;DHT22;8599;47.852;12.070;2024-03-08T01:25:36;1.40;99.90
16966;DHT22;8599;47.852;12.070;2024-03-08T01:28:03;1.30;99.90
16966;DHT22;8599;47.852;12.070;2024-03-08T01:30:30;1.30;99.90
16966;DHT22;8599;47.852;12.070;2024-03-08T01:32:58;1.30;99.90
16966;DHT22;8599;47.852;12.070;2024-03-08T01:35:24;1.20;99.90
16966;DHT22;8599;47.852;12.070;2024-03-08T01:37:52;1.20;99.90
16966;DHT22;8599;47.852;12.070;2024-03-08T01:40:21;1.20;99.90
16966;DHT22;8599;47.852;12.070;2024-03-08T01:42:48;1.20;99.90
16966;DHT22;8599;47.852;12.070;2024-03-08T01:45:15;1.20;99.90
16966;DHT22;8599;47.852;12.070;2024-03-08T01:47:42;1.20;99.90
16966;DHT22;8599;47.852;12.070;2024-03-08T01:50:09;1.20;99.90
16966;DHT22;8599;47.852;12.070;2024-03-08T01:52:36;1.20;99.90
16966;DHT22;8599;47.852;12.070;2024-03-08T01:55:05;1.10;99.90
16966;DHT22;8599;47.852;12.070;2024-03-08T01:57:34;1.20;99.90
16966;DHT22;8599;47.852;12.070;2024-03-08T02:00:04;1.20;99.90
16966;DHT22;8599;47.852;12.070;2024-03-08T02:02:32;1.20;99.90
16966;DHT22;8599;47.852;12.070;2024-03-08T02:05:00;1.10;99.90
16966;DHT22;8599;47.852;12.070;2024-03-08T02:07:28;1.00;99.90
16966;DHT22;8599;47.852;12.070;2024-03-08T02:09:55;1.00;99.90
16966;DHT22;8599;47.852;12.070;2024-03-08T02:12:22;0.90;99.90
16966;DHT22;8599;47.852;12.070;2024-03-08T02:14:50;0.80;99.90
16966;DHT22;8599;47.852;12.070;2024-03-08T02:17:17;0.90;99.90
16966;DHT22;8599;47.852;12.070;2024-03-08T02:19:44;0.90;99.90
16966;DHT22;8599;47.852;12.070;2024-03-08T02:22:12;0.90;99.90
16966;DHT22;8599;47.852;12.070;2024-03-08T02:24:38;1.00;99.90
16966;DHT22;8599;47.852;12.070;2024-03-08T02:27:05;1.00;99.90
16966;DHT22;8599;47.852;12.070;2024-03-08T02:29:34;1.00;99.90
16966;DHT22;8599;47.852;12.070;2024-03-08T02:32:00;0.90;99.90
16966;DHT22;8599;47.852;12.070;2024-03-08T02:34:28;0.90;99.90
16966;DHT22;8599;47.852;12.070;2024-03-08T02:36:56;1.00;99.90
16966;DHT22;8599;47.852;12.070;2024-03-08T02:39:25;1.00;99.90
16966;DHT22;8599;47.852;12.070;2024-03-08T02:41:53;0.80;99.90
16966;DHT22;8599;47.852;12.070;2024-03-08T02:44:20;0.80;99.90
16966;DHT22;8599;47.852;12.070;2024-03-08T02:46:47;0.80;99.90
16966;DHT22;8599;47.852;12.070;2024-03-08T02:49:14;0.70;99.90
16966;DHT22;8599;47.852;12.070;2024-03-08T02:51:41;0.80;99.90
16966;DHT22;8599;47.852;12.070;2024-03-08T02:54:08;0.80;99.90
16966;DHT22;8599;47.852;12.070;2024-03-08T02:56:37;0.80;99.90
16966;DHT22;8599;47.852;12.070;2024-03-08T02:59:03;0.80;99.90
16966;DHT22;8599;47.852;12.070;2024-03-08T03:01:30;0.80;99.90
16966;DHT22;8599;47.852;12.070;2024-03-08T03:03:58;0.80;99.90
16966;DHT22;8599;47.852;12.070;2024-03-08T03:06:24;0.70;99.90
16966;DHT22;8599;47.852;12.070;2024-03-08T03:08:51;0.70;99.90
16966;DHT22;8599;47.852;12.070;2024-03-08T03:11:19;0.70;99.90
16966;DHT22;8599;47.852;12.070;2024-03-08T03:13:47;0.80;99.90
16966;DHT22;8599;47.852;12.070;2024-03-08T03:16:17;0.80;99.90
16966;DHT22;8599;47.852;12.070;2024-03-08T03:18:45;0.80;99.90
16966;DHT22;8599;47.852;12.070;2024-03-08T03:21:12;0.80;99.90
16966;DHT22;8599;47.852;12.070;2024-03-08T03:23:39;0.60;99.90
16966;DHT22;8599;47.852;12.070;2024-03-08T03:26:07;0.60;99.90
16966;DHT22;8599;47.852;12.070;2024-03-08T03:28:34;0.60;99.90
16966;DHT22;8599;47.852;12.070;2024-03-08T03:31:06;0.70;99.90
16966;DHT22;8599;47.852;12.070;2024-03-08T03:33:32;0.80;99.90
16966;DHT22;8599;47.852;12.070;2024-03-08T03:36:02;0.80;99.90
16966;DHT22;8599;47.852;12.070;2024-03-08T03:38:30;0.90;99.90
16966;DHT22;8599;47.852;12.070;2024-03-08T03:40:57;1.00;99.90
16966;DHT22;8599;47.852;12.070;2024-03-08T03:43:29;0.90;99.90
16966;DHT22;8599;47.852;12.070;2024-03-08T03:45:56;1.00;99.90
16966;DHT22;8599;47.852;12.070;2024-03-08T03:48:24;1.00;99.90
16966;DHT22;8599;47.852;12.070;2024-03-08T03:50:51;0.90;99.90
16966;DHT22;8599;47.852;12.070;2024-03-08T03:53:18;0.90;99.90
16966;DHT22;8599;47.852;12.070;2024-03-08T03:55:45;0.90;99.90
16966;DHT22;8599;47.852;12.070;2024-03-08T03:58:12;0.90;99.90
16966;DHT22;8599;47.852;12.070;2024-03-08T04:00:39;1.00;99.90
16966;DHT22;8599;47.852;12.070;2024-03-08T04:03:07;0.80;99.90
16966;DHT22;8599;47.852;12.070;2024-03-08T04:05:35;0.70;99.90
16966;DHT22;8599;47.852;12.070;2024-03-08T04:08:02;0.70;99.90
16966;DHT22;8599;47.852;12.070;2024-03-08T04:10:29;0.60;99.90
16966;DHT22;8599;47.852;12.070;2024-03-08T04:12:56;0.60;99.90
16966;DHT22;8599;47.852;12.070;2024-03-08T04:15:23;0.90;99.90
16966;DHT22;8599;47.852;12.070;2024-03-08T04:17:50;0.80;99.90
16966;DHT22;8599;47.852;12.070;2024-03-08T04:20:17;0.90;99.90
16966;DHT22;8599;47.852;12.070;2024-03-08T04:22:45;0.80;99.90
16966;DHT22;8599;47.852;12.070;2024-03-08T04:25:14;0.80;99.90
16966;DHT22;8599;47.852;12.070;2024-03-08T04:27:41;0.80;99.90
16966;DHT22;8599;47.852;12.070;2024-03-08T04:30:09;0.90;99.90
16966;DHT22;8599;47.852;12.070;2024-03-08T04:32:36;1.00;99.90
16966;DHT22;8599;47.852;12.070;2024-03-08T04:35:03;1.00;99.90
16966;DHT22;8599;47.852;12.070;2024-03-08T04:37:30;0.90;99.90
16966;DHT22;8599;47.852;12.070;2024-03-08T04:39:58;0.80;99.90
16966;DHT22;8599;47.852;12.070;2024-03-08T04:42:25;0.80;99.90
16966;DHT22;8599;47.852;12.070;2024-03-08T04:44:54;0.90;99.90
16966;DHT22;8599;47.852;12.070;2024-03-08T04:47:21;0.80;99.90
16966;DHT22;8599;47.852;12.070;2024-03-08T04:49:48;0.90;99.90
16966;DHT22;8599;47.852;12.070;2024-03-08T04:52:15;0.90;99.90
16966;DHT22;8599;47.852;12.070;2024-03-08T04:54:43;0.90;99.90
16966;DHT22;8599;47.852;12.070;2024-03-08T04:57:11;0.70;99.90
16966;DHT22;8599;47.852;12.070;2024-03-08T04:59:38;0.60;99.90
16966;DHT22;8599;47.852;12.070;2024-03-08T05:02:05;0.50;99.90
16966;DHT22;8599;47.852;12.070;2024-03-08T05:04:32;0.50;99.90
16966;DHT22;8599;47.852;12.070;2024-03-08T05:06:59;0.50;99.90
16966;DHT22;8599;47.852;12.070;2024-03-08T05:09:26;0.40;99.90
16966;DHT22;8599;47.852;12.070;2024-03-08T05:11:55;0.40;99.90
16966;DHT22;8599;47.852;12.070;2024-03-08T05:14:23;0.40;99.90
16966;DHT22;8599;47.852;12.070;2024-03-08T05:16:50;0.50;99.90
16966;DHT22;8599;47.852;12.070;2024-03-08T05:19:18;0.50;99.90
16966;DHT22;8599;47.852;12.070;2024-03-08T05:21:45;0.40;99.90
16966;DHT22;8599;47.852;12.070;2024-03-08T05:24:12;0.40;99.90
16966;DHT22;8599;47.852;12.070;2024-03-08T05:26:40;0.30;99.90
16966;DHT22;8599;47.852;12.070;2024-03-08T05:29:07;0.40;99.90
16966;DHT22;8599;47.852;12.070;2024-03-08T05:31:43;0.30;99.90
16966;DHT22;8599;47.852;12.070;2024-03-08T05:34:12;0.30;99.90
16966;DHT22;8599;47.852;12.070;2024-03-08T05:36:40;0.30;99.90
16966;DHT22;8599;47.852;12.070;2024-03-08T05:39:07;0.20;99.90
16966;DHT22;8599;47.852;12.070;2024-03-08T05:41:33;0.20;99.90
16966;DHT22;8599;47.852;12.070;2024-03-08T05:44:00;0.30;99.90
16966;DHT22;8599;47.852;12.070;2024-03-08T05:46:28;0.40;99.90
16966;DHT22;8599;47.852;12.070;2024-03-08T05:48:57;0.50;99.90
16966;DHT22;8599;47.852;12.070;2024-03-08T05:51:24;0.50;99.90
16966;DHT22;8599;47.852;12.070;2024-03-08T05:53:52;0.50;99.90
16966;DHT22;8599;47.852;12.070;2024-03-08T05:56:21;0.40;99.90
16966;DHT22;8599;47.852;12.070;2024-03-08T05:58:48;0.40;99.90
16966;DHT22;8599;47.852;12.070;2024-03-08T06:01:15;0.40;99.90
16966;DHT22;8599;47.852;12.070;2024-03-08T06:03:42;0.40;99.90
16966;DHT22;8599;47.852;12.070;2024-03-08T06:06:12;0.50;99.90
16966;DHT22;8599;47.852;12.070;2024-03-08T06:08:39;0.50;99.90
16966;DHT22;8599;47.852;12.070;2024-03-08T06:11:06;0.60;99.90
16966;DHT22;8599;47.852;12.070;2024-03-08T06:13:32;0.60;99.90
16966;DHT22;8599;47.852;12.070;2024-03-08T06:15:59;0.60;99.90
16966;DHT22;8599;47.852;12.070;2024-03-08T06:18:29;0.60;99.90
16966;DHT22;8599;47.852;12.070;2024-03-08T06:20:56;0.60;99.90
16966;DHT22;8599;47.852;12.070;2024-03-08T06:23:25;0.70;99.90
16966;DHT22;8599;47.852;12.070;2024-03-08T06:25:53;0.70;99.90
16966;DHT22;8599;47.852;12.070;2024-03-08T06:28:20;0.70;99.90
16966;DHT22;8599;47.852;12.070;2024-03-08T06:30:46;0.80;99.90
16966;DHT22;8599;47.852;12.070;2024-03-08T06:33:13;0.90;99.90
16966;DHT22;8599;47.852;12.070;2024-03-08T06:35:41;0.90;99.90
16966;DHT22;8599;47.852;12.070;2024-03-08T06:38:08;0.90;99.90
16966;DHT22;8599;47.852;12.070;2024-03-08T06:40:36;0.90;99.90
16966;DHT22;8599;47.852;12.070;2024-03-08T06:43:03;0.90;99.90
16966;DHT22;8599;47.852;12.070;2024-03-08T06:45:31;1.00;99.90
16966;DHT22;8599;47.852;12.070;2024-03-08T06:47:58;1.00;99.90
16966;DHT22;8599;47.852;12.070;2024-03-08T06:50:25;1.10;99.90
16966;DHT22;8599;47.852;12.070;2024-03-08T06:52:52;1.20;99.90
16966;DHT22;8599;47.852;12.070;2024-03-08T06:55:19;1.20;99.90
16966;DHT22;8599;47.852;12.070;2024-03-08T06:57:47;1.20;99.90
16966;DHT22;8599;47.852;12.070;2024-03-08T07:00:15;1.20;99.90
16966;DHT22;8599;47.852;12.070;2024-03-08T07:02:46;1.20;99.90
16966;DHT22;8599;47.852;12.070;2024-03-08T07:05:14;1.20;99.90
16966;DHT22;8599;47.852;12.070;2024-03-08T07:07:42;1.20;99.90
16966;DHT22;8599;47.852;12.070;2024-03-08T07:10:09;1.20;99.90
16966;DHT22;8599;47.852;12.070;2024-03-08T07:12:37;1.20;99.90
16966;DHT22;8599;47.852;12.070;2024-03-08T07:15:06;1.30;99.90
16966;DHT22;8599;47.852;12.070;2024-03-08T07:17:33;1.30;99.90
16966;DHT22;8599;47.852;12.070;2024-03-08T07:20:01;1.40;99.90
16966;DHT22;8599;47.852;12.070;2024-03-08T07:22:33;1.60;99.90
16966;DHT22;8599;47.852;12.070;2024-03-08T07:25:02;1.70;99.90
16966;DHT22;8599;47.852;12.070;2024-03-08T07:27:46;1.70;99.90
16966;DHT22;8599;47.852;12.070;2024-03-08T07:30:14;1.80;99.90
16966;DHT22;8599;47.852;12.070;2024-03-08T07:33:03;1.70;99.90
16966;DHT22;8599;47.852;12.070;2024-03-08T07:35:30;2.00;99.90
16966;DHT22;8599;47.852;12.070;2024-03-08T07:37:57;1.90;99.90
16966;DHT22;8599;47.852;12.070;2024-03-08T07:40:25;1.90;99.90
16966;DHT22;8599;47.852;12.070;2024-03-08T07:42:52;2.00;99.90
16966;DHT22;8599;47.852;12.070;2024-03-08T07:45:20;2.00;99.90
16966;DHT22;8599;47.852;12.070;2024-03-08T07:47:48;2.10;99.90
16966;DHT22;8599;47.852;12.070;2024-03-08T07:50:16;2.10;99.90
16966;DHT22;8599;47.852;12.070;2024-03-08T07:52:45;2.10;99.90
16966;DHT22;8599;47.852;12.070;2024-03-08T07:55:11;2.30;99.90
16966;DHT22;8599;47.852;12.070;2024-03-08T07:57:38;2.40;99.90
16966;DHT22;8599;47.852;12.070;2024-03-08T08:00:06;2.40;99.90
16966;DHT22;8599;47.852;12.070;2024-03-08T08:02:35;2.30;99.90
16966;DHT22;8599;47.852;12.070;2024-03-08T08:05:02;2.30;99.90
16966;DHT22;8599;47.852;12.070;2024-03-08T08:07:29;2.40;99.90
16966;DHT22;8599;47.852;12.070;2024-03-08T08:09:56;2.40;99.90
16966;DHT22;8599;47.852;12.070;2024-03-08T08:12:23;2.50;99.90
16966;DHT22;8599;47.852;12.070;2024-03-08T08:14:50;2.50;99.90
16966;DHT22;8599;47.852;12.070;2024-03-08T08:17:17;2.60;99.90
16966;DHT22;8599;47.852;12.070;2024-03-08T08:19:45;2.60;99.90
16966;DHT22;8599;47.852;12.070;2024-03-08T08:22:12;2.60;99.90
16966;DHT22;8599;47.852;12.070;2024-03-08T08:24:38;2.60;99.90
16966;DHT22;8599;47.852;12.070;2024-03-08T08:27:05;2.70;99.90
16966;DHT22;8599;47.852;12.070;2024-03-08T08:29:32;2.80;99.90
16966;DHT22;8599;47.852;12.070;2024-03-08T08:32:00;2.90;99.90
16966;DHT22;8599;47.852;12.070;2024-03-08T08:34:28;2.90;99.90
16966;DHT22;8599;47.852;12.070;2024-03-08T08:36:57;3.00;99.90
16966;DHT22;8599;47.852;12.070;2024-03-08T08:39:23;3.20;99.90
16966;DHT22;8599;47.852;12.070;2024-03-08T08:41:51;3.30;99.90
16966;DHT22;8599;47.852;12.070;2024-03-08T08:44:18;3.40;99.90
16966;DHT22;8599;47.852;12.070;2024-03-08T08:46:44;3.40;99.90
16966;DHT22;8599;47.852;12.070;2024-03-08T08:49:11;3.50;99.90
16966;DHT22;8599;47.852;12.070;2024-03-08T08:51:40;3.50;99.90
16966;DHT22;8599;47.852;12.070;2024-03-08T08:54:08;3.60;99.90
16966;DHT22;8599;47.852;12.070;2024-03-08T08:56:35;3.70;99.90
16966;DHT22;8599;47.852;12.070;2024-03-08T08:59:02;3.90;99.90
16966;DHT22;8599;47.852;12.070;2024-03-08T09:01:30;4.00;99.90
16966;DHT22;8599;47.852;12.070;2024-03-08T09:03:57;3.90;99.90
16966;DHT22;8599;47.852;12.070;2024-03-08T09:06:23;3.90;99.90
16966;DHT22;8599;47.852;12.070;2024-03-08T09:08:51;4.00;99.90
16966;DHT22;8599;47.852;12.070;2024-03-08T09:11:19;4.10;99.90
16966;DHT22;8599;47.852;12.070;2024-03-08T09:13:46;4.30;99.90
16966;DHT22;8599;47.852;12.070;2024-03-08T09:16:14;4.20;99.90
16966;DHT22;8599;47.852;12.070;2024-03-08T09:18:41;4.40;99.90
16966;DHT22;8599;47.852;12.070;2024-03-08T09:21:08;4.30;99.90
16966;DHT22;8599;47.852;12.070;2024-03-08T09:23:35;4.40;99.90
16966;DHT22;8599;47.852;12.070;2024-03-08T09:26:02;4.50;99.90
16966;DHT22;8599;47.852;12.070;2024-03-08T09:28:31;4.70;99.90
16966;DHT22;8599;47.852;12.070;2024-03-08T09:30:57;4.60;99.90
16966;DHT22;8599;47.852;12.070;2024-03-08T09:33:26;4.60;99.90
16966;DHT22;8599;47.852;12.070;2024-03-08T09:35:54;4.70;99.90
16966;DHT22;8599;47.852;12.070;2024-03-08T09:38:23;4.80;99.90
16966;DHT22;8599;47.852;12.070;2024-03-08T09:40:50;4.90;99.90
16966;DHT22;8599;47.852;12.070;2024-03-08T09:43:18;4.80;99.90
16966;DHT22;8599;47.852;12.070;2024-03-08T09:45:49;4.80;99.90
16966;DHT22;8599;47.852;12.070;2024-03-08T09:48:17;5.10;99.90
16966;DHT22;8599;47.852;12.070;2024-03-08T09:50:46;5.20;99.90
16966;DHT22;8599;47.852;12.070;2024-03-08T09:53:13;5.20;99.90
16966;DHT22;8599;47.852;12.070;2024-03-08T09:55:41;5.40;99.90
16966;DHT22;8599;47.852;12.070;2024-03-08T09:58:12;5.40;99.90
16966;DHT22;8599;47.852;12.070;2024-03-08T10:00:57;5.30;99.90
16966;DHT22;8599;47.852;12.070;2024-03-08T10:03:27;5.30;99.90
16966;DHT22;8599;47.852;12.070;2024-03-08T10:05:54;5.40;99.90
16966;DHT22;8599;47.852;12.070;2024-03-08T10:08:25;5.50;99.90
16966;DHT22;8599;47.852;12.070;2024-03-08T10:10:52;5.60;99.90
16966;DHT22;8599;47.852;12.070;2024-03-08T10:13:19;5.60;99.90
16966;DHT22;8599;47.852;12.070;2024-03-08T10:15:46;5.70;99.90
16966;DHT22;8599;47.852;12.070;2024-03-08T10:18:14;5.80;99.90
16966;DHT22;8599;47.852;12.070;2024-03-08T10:20:41;5.90;99.90
16966;DHT22;8599;47.852;12.070;2024-03-08T10:23:09;6.00;99.90
16966;DHT22;8599;47.852;12.070;2024-03-08T10:25:36;6.10;99.90
16966;DHT22;8599;47.852;12.070;2024-03-08T10:28:04;6.00;99.90
16966;DHT22;8599;47.852;12.070;2024-03-08T10:30:34;6.10;99.90
16966;DHT22;8599;47.852;12.070;2024-03-08T10:33:00;6.00;99.90
16966;DHT22;8599;47.852;12.070;2024-03-08T10:35:32;6.00;99.90
16966;DHT22;8599;47.852;12.070;2024-03-08T10:37:58;6.10;99.90
16966;DHT22;8599;47.852;12.070;2024-03-08T10:40:29;6.20;99.90
16966;DHT22;8599;47.852;12.070;2024-03-08T10:42:57;6.30;99.90
16966;DHT22;8599;47.852;12.070;2024-03-08T10:45:31;6.40;99.90
16966;DHT22;8599;47.852;12.070;2024-03-08T10:48:10;6.50;99.90
16966;DHT22;8599;47.852;12.070;2024-03-08T10:50:43;6.60;99.90
16966;DHT22;8599;47.852;12.070;2024-03-08T10:53:11;6.90;99.90
16966;DHT22;8599;47.852;12.070;2024-03-08T10:55:40;7.00;99.90
16966;DHT22;8599;47.852;12.070;2024-03-08T10:58:07;6.90;99.90
16966;DHT22;8599;47.852;12.070;2024-03-08T11:00:34;6.80;99.90
16966;DHT22;8599;47.852;12.070;2024-03-08T11:03:01;7.00;99.90
16966;DHT22;8599;47.852;12.070;2024-03-08T11:05:37;7.00;99.90
16966;DHT22;8599;47.852;12.070;2024-03-08T11:08:17;7.00;99.90
16966;DHT22;8599;47.852;12.070;2024-03-08T11:10:48;7.10;99.90
16966;DHT22;8599;47.852;12.070;2024-03-08T11:13:33;6.90;99.90
16966;DHT22;8599;47.852;12.070;2024-03-08T11:16:00;7.00;99.90
16966;DHT22;8599;47.852;12.070;2024-03-08T11:18:26;7.10;99.90
16966;DHT22;8599;47.852;12.070;2024-03-08T11:20:54;7.20;99.90
16966;DHT22;8599;47.852;12.070;2024-03-08T11:23:24;7.30;99.90
16966;DHT22;8599;47.852;12.070;2024-03-08T11:25:51;7.50;99.90
16966;DHT22;8599;47.852;12.070;2024-03-08T11:28:20;7.30;99.90
16966;DHT22;8599;47.852;12.070;2024-03-08T11:31:23;7.40;99.90
16966;DHT22;8599;47.852;12.070;2024-03-08T11:33:51;7.40;99.90
16966;DHT22;8599;47.852;12.070;2024-03-08T11:36:21;7.50;99.90
16966;DHT22;8599;47.852;12.070;2024-03-08T11:38:50;7.60;99.90
16966;DHT22;8599;47.852;12.070;2024-03-08T11:41:18;7.90;99.90
16966;DHT22;8599;47.852;12.070;2024-03-08T11:43:46;7.90;99.90
16966;DHT22;8599;47.852;12.070;2024-03-08T11:46:14;8.00;99.90
16966;DHT22;8599;47.852;12.070;2024-03-08T11:48:42;8.10;99.90
16966;DHT22;8599;47.852;12.070;2024-03-08T11:51:09;8.10;99.90
16966;DHT22;8599;47.852;12.070;2024-03-08T11:53:37;8.10;99.90
16966;DHT22;8599;47.852;12.070;2024-03-08T11:56:10;8.20;99.90
16966;DHT22;8599;47.852;12.070;2024-03-08T11:58:38;8.20;99.90
16966;DHT22;8599;47.852;12.070;2024-03-08T12:01:06;8.30;99.90
16966;DHT22;8599;47.852;12.070;2024-03-08T12:03:35;8.40;99.90
16966;DHT22;8599;47.852;12.070;2024-03-08T12:06:04;8.70;99.90
16966;DHT22;8599;47.852;12.070;2024-03-08T12:08:31;8.70;99.90
16966;DHT22;8599;47.852;12.070;2024-03-08T12:10:58;8.80;99.90
16966;DHT22;8599;47.852;12.070;2024-03-08T12:13:27;8.90;99.90
16966;DHT22;8599;47.852;12.070;2024-03-08T12:15:56;8.90;99.90
16966;DHT22;8599;47.852;12.070;2024-03-08T12:18:24;8.90;99.90
16966;DHT22;8599;47.852;12.070;2024-03-08T12:20:52;8.90;99.90
16966;DHT22;8599;47.852;12.070;2024-03-08T12:23:30;9.00;99.90
16966;DHT22;8599;47.852;12.070;2024-03-08T12:25:56;9.10;99.90
16966;DHT22;8599;47.852;12.070;2024-03-08T12:28:23;9.10;99.90
16966;DHT22;8599;47.852;12.070;2024-03-08T12:30:52;9.00;99.90
16966;DHT22;8599;47.852;12.070;2024-03-08T12:33:20;9.00;99.90
16966;DHT22;8599;47.852;12.070;2024-03-08T12:35:51;9.00;99.90
16966;DHT22;8599;47.852;12.070;2024-03-08T12:38:20;9.10;99.90
16966;DHT22;8599;47.852;12.070;2024-03-08T12:40:50;9.20;99.90
16966;DHT22;8599;47.852;12.070;2024-03-08T12:43:18;9.40;99.90
16966;DHT22;8599;47.852;12.070;2024-03-08T12:45:46;9.50;99.90
16966;DHT22;8599;47.852;12.070;2024-03-08T12:48:14;9.40;99.90
16966;DHT22;8599;47.852;12.070;2024-03-08T12:50:41;9.50;99.90
16966;DHT22;8599;47.852;12.070;2024-03-08T12:53:09;9.70;99.90
16966;DHT22;8599;47.852;12.070;2024-03-08T12:55:36;9.80;99.90
16966;DHT22;8599;47.852;12.070;2024-03-08T12:58:04;9.70;99.90
16966;DHT22;8599;47.852;12.070;2024-03-08T13:00:32;9.70;99.90
16966;DHT22;8599;47.852;12.070;2024-03-08T13:03:01;9.70;99.90
16966;DHT22;8599;47.852;12.070;2024-03-08T13:05:30;9.90;99.90
16966;DHT22;8599;47.852;12.070;2024-03-08T13:07:57;9.90;99.90
16966;DHT22;8599;47.852;12.070;2024-03-08T13:10:24;10.00;99.90
16966;DHT22;8599;47.852;12.070;2024-03-08T13:12:50;10.10;99.90
16966;DHT22;8599;47.852;12.070;2024-03-08T13:15:18;10.20;99.90
16966;DHT22;8599;47.852;12.070;2024-03-08T13:17:47;10.00;99.90
16966;DHT22;8599;47.852;12.070;2024-03-08T13:20:14;10.20;99.90
16966;DHT22;8599;47.852;12.070;2024-03-08T13:22:46;10.20;99.90
16966;DHT22;8599;47.852;12.070;2024-03-08T13:25:13;10.20;99.90
16966;DHT22;8599;47.852;12.070;2024-03-08T13:27:40;10.30;99.90
16966;DHT22;8599;47.852;12.070;2024-03-08T13:30:08;10.70;99.90
16966;DHT22;8599;47.852;12.070;2024-03-08T13:32:38;10.70;99.90
16966;DHT22;8599;47.852;12.070;2024-03-08T13:35:06;10.60;99.90
16966;DHT22;8599;47.852;12.070;2024-03-08T13:37:38;10.60;99.90
16966;DHT22;8599;47.852;12.070;2024-03-08T13:40:08;10.60;99.90
16966;DHT22;8599;47.852;12.070;2024-03-08T13:42:39;10.90;99.90
16966;DHT22;8599;47.852;12.070;2024-03-08T13:45:08;11.00;99.90
16966;DHT22;8599;47.852;12.070;2024-03-08T13:47:36;10.90;99.90
16966;DHT22;8599;47.852;12.070;2024-03-08T13:50:05;10.90;99.90
16966;DHT22;8599;47.852;12.070;2024-03-08T13:52:32;10.90;99.90
16966;DHT22;8599;47.852;12.070;2024-03-08T13:54:59;11.00;99.90
16966;DHT22;8599;47.852;12.070;2024-03-08T13:57:28;10.90;99.90
16966;DHT22;8599;47.852;12.070;2024-03-08T13:59:54;10.80;99.90
16966;DHT22;8599;47.852;12.070;2024-03-08T14:02:21;11.00;99.90
16966;DHT22;8599;47.852;12.070;2024-03-08T14:04:50;11.50;99.90
16966;DHT22;8599;47.852;12.070;2024-03-08T14:07:17;11.70;99.90
16966;DHT22;8599;47.852;12.070;2024-03-08T14:09:43;11.50;99.90
16966;DHT22;8599;47.852;12.070;2024-03-08T14:12:10;11.40;99.90
16966;DHT22;8599;47.852;12.070;2024-03-08T14:14:38;11.30;99.90
16966;DHT22;8599;47.852;12.070;2024-03-08T14:17:07;11.40;99.90
16966;DHT22;8599;47.852;12.070;2024-03-08T14:19:35;11.40;99.90
16966;DHT22;8599;47.852;12.070;2024-03-08T14:22:02;11.60;99.90
16966;DHT22;8599;47.852;12.070;2024-03-08T14:24:29;11.60;99.90
16966;DHT22;8599;47.852;12.070;2024-03-08T14:26:56;11.90;99.90
16966;DHT22;8599;47.852;12.070;2024-03-08T14:29:24;11.90;99.90
16966;DHT22;8599;47.852;12.070;2024-03-08T14:31:56;11.70;99.90
16966;DHT22;8599;47.852;12.070;2024-03-08T14:34:24;12.00;99.90
16966;DHT22;8599;47.852;12.070;2024-03-08T14:36:52;11.50;99.90
16966;DHT22;8599;47.852;12.070;2024-03-08T14:39:19;11.60;99.90
16966;DHT22;8599;47.852;12.070;2024-03-08T14:41:47;11.80;99.90
16966;DHT22;8599;47.852;12.070;2024-03-08T14:44:17;12.00;99.90
16966;DHT22;8599;47.852;12.070;2024-03-08T14:46:44;12.20;99.90
16966;DHT22;8599;47.852;12.070;2024-03-08T14:49:12;12.30;99.90
16966;DHT22;8599;47.852;12.070;2024-03-08T14:51:39;12.30;99.90
16966;DHT22;8599;47.852;12.070;2024-03-08T14:54:06;12.40;99.90
16966;DHT22;8599;47.852;12.070;2024-03-08T14:56:36;12.30;99.90
16966;DHT22;8599;47.852;12.070;2024-03-08T14:59:03;12.30;99.90
16966;DHT22;8599;47.852;12.070;2024-03-08T15:01:30;12.40;99.90
16966;DHT22;8599;47.852;12.070;2024-03-08T15:03:58;12.50;99.90
16966;DHT22;8599;47.852;12.070;2024-03-08T15:06:35;12.50;99.90
16966;DHT22;8599;47.852;12.070;2024-03-08T15:09:03;12.40;99.90
16966;DHT22;8599;47.852;12.070;2024-03-08T15:11:36;12.20;99.90
16966;DHT22;8599;47.852;12.070;2024-03-08T15:14:04;12.00;99.90
16966;DHT22;8599;47.852;12.070;2024-03-08T15:16:35;11.60;99.90
16966;DHT22;8599;47.852;12.070;2024-03-08T15:19:02;11.90;99.90
16966;DHT22;8599;47.852;12.070;2024-03-08T15:21:31;12.00;99.90
16966;DHT22;8599;47.852;12.070;2024-03-08T15:23:59;12.10;99.90
16966;DHT22;8599;47.852;12.070;2024-03-08T15:26:28;12.60;99.90
16966;DHT22;8599;47.852;12.070;2024-03-08T15:28:55;12.60;99.90
16966;DHT22;8599;47.852;12.070;2024-03-08T15:31:22;12.30;99.90
16966;DHT22;8599;47.852;12.070;2024-03-08T15:33:50;12.30;99.90
16966;DHT22;8599;47.852;12.070;2024-03-08T15:36:25;12.60;99.90
16966;DHT22;8599;47.852;12.070;2024-03-08T15:38:56;12.80;99.90
16966;DHT22;8599;47.852;12.070;2024-03-08T15:41:24;12.70;99.90
16966;DHT22;8599;47.852;12.070;2024-03-08T15:43:52;12.30;99.90
16966;DHT22;8599;47.852;12.070;2024-03-08T15:46:20;12.00;99.90
16966;DHT22;8599;47.852;12.070;2024-03-08T15:48:48;11.50;99.90